createdAt,value
2019-04-21T00:02:32.267Z,95932.17
2019-04-21T00:05:18.817Z,95924.66
2019-04-21T00:07:52.789Z,95923.39
2019-04-21T00:10:26.931Z,95916.84
2019-04-21T00:12:52.235Z,95918.44
2019-04-21T00:15:20.201Z,95918.38
2019-04-21T00:17:49.874Z,95915.90
2019-04-21T00:20:32.263Z,95914.91
2019-04-21T00:23:15.586Z,95914.98
2019-04-21T00:25:38.775Z,95918.38
2019-04-21T00:28:25.410Z,95921.75
2019-04-21T00:30:56.981Z,95922.38
2019-04-21T00:33:17.173Z,95917.64
2019-04-21T00:35:47.779Z,95917.56
2019-04-21T00:38:32.666Z,95919.27
2019-04-21T00:41:08.921Z,95914.28
2019-04-21T00:43:40.122Z,95907.27
2019-04-21T00:46:03.263Z,95903.36
2019-04-21T00:48:49.764Z,95907.83
2019-04-21T00:54:05.779Z,95915.20
2019-04-21T00:56:34.401Z,95909.64
2019-04-21T00:59:11.768Z,95908.66
2019-04-21T01:01:42.482Z,95909.64
2019-04-21T01:04:09.683Z,95911.45
2019-04-21T01:06:49.590Z,95911.28
2019-04-21T01:09:13.562Z,95918.16
2019-04-21T01:11:53.378Z,95905.22
2019-04-21T01:14:34.811Z,95908.33
2019-04-21T01:17:07.124Z,95902.59
2019-04-21T01:19:29.252Z,95900.35
2019-04-21T01:21:44.601Z,95898.88
2019-04-21T01:24:21.635Z,95902.33
2019-04-21T01:27:02.052Z,95901.83
2019-04-21T01:29:46.959Z,95902.91
2019-04-21T01:32:19.667Z,95902.70
2019-04-21T01:34:45.505Z,95904.59
2019-04-21T01:37:25.188Z,95899.12
2019-04-21T01:40:02.058Z,95903.31
2019-04-21T01:43:07.742Z,95900.26
2019-04-21T01:45:45.794Z,95893.13
2019-04-21T01:48:17.383Z,95892.30
2019-04-21T01:50:51.647Z,95888.44
2019-04-21T01:53:45.458Z,95888.32
2019-04-21T01:56:29.283Z,95886.84
2019-04-21T01:58:50.636Z,95881.17
2019-04-21T02:01:37.196Z,95889.11
2019-04-21T02:04:00.012Z,95892.91
2019-04-21T02:06:41.101Z,95887.08
2019-04-21T02:09:09.818Z,95885.75
2019-04-21T02:11:53.458Z,95883.04
2019-04-21T02:14:29.880Z,95880.99
2019-04-21T02:16:54.188Z,95882.32
2019-04-21T02:19:28.430Z,95879.41
2019-04-21T02:21:51.897Z,95885.09
2019-04-21T02:27:07.535Z,95871.30
2019-04-21T02:29:45.218Z,95867.92
2019-04-21T02:37:39.521Z,95873.10
2019-04-21T02:40:08.434Z,95877.92
2019-04-21T02:42:43.276Z,95875.52
2019-04-21T02:45:09.317Z,95877.80
2019-04-21T02:47:48.371Z,95880.59
2019-04-21T02:50:21.265Z,95874.42
2019-04-21T02:55:17.793Z,95882.12
2019-04-21T02:57:58.867Z,95870.82
2019-04-21T03:00:32.831Z,95867.59
2019-04-21T03:03:31.662Z,95867.80
2019-04-21T03:06:16.820Z,95866.78
2019-04-21T03:08:44.816Z,95862.69
2019-04-21T03:11:17.193Z,95864.20
2019-04-21T03:13:47.370Z,95870.42
2019-04-21T03:16:25.759Z,95868.17
2019-04-21T03:18:56.573Z,95865.36
2019-04-21T03:21:22.202Z,95871.61
2019-04-21T03:29:05.822Z,95860.27
2019-04-21T03:34:43.455Z,95858.22
2019-04-21T03:37:04.973Z,95857.77
2019-04-21T03:39:18.389Z,95858.55
2019-04-21T03:42:00.267Z,95862.31
2019-04-21T03:44:24.683Z,95865.27
2019-04-21T03:46:55.607Z,95857.89
2019-04-21T03:55:12.468Z,95858.84
2019-04-21T03:57:48.288Z,95860.19
2019-04-21T04:00:27.618Z,95853.32
2019-04-21T04:03:35.146Z,95847.95
2019-04-21T04:11:39.810Z,95846.69
2019-04-21T04:16:37.185Z,95848.52
2019-04-21T04:19:08.546Z,95852.13
2019-04-21T04:21:47.641Z,95847.84
2019-04-21T04:24:28.483Z,95852.76
2019-04-21T04:27:01.519Z,95854.54
2019-04-21T04:31:53.511Z,95851.08
2019-04-21T04:34:47.730Z,95855.97
2019-04-21T04:40:04.990Z,95850.73
2019-04-21T04:50:17.779Z,95862.50
2019-04-21T04:55:23.579Z,95858.62
2019-04-21T05:00:36.921Z,95854.16
2019-04-21T05:02:58.775Z,95859.80
2019-04-21T05:05:37.747Z,95855.43
2019-04-21T05:08:08.587Z,95846.38
2019-04-21T05:10:51.455Z,95847.06
2019-04-21T05:13:06.484Z,95847.03
2019-04-21T05:15:42.213Z,95852.31
2019-04-21T05:18:22.428Z,95847.48
2019-04-21T05:20:57.503Z,95842.42
2019-04-21T05:23:19.585Z,95846.03
2019-04-21T05:25:45.860Z,95849.50
2019-04-21T05:28:15.143Z,95857.04
2019-04-21T05:31:25.159Z,95847.20
2019-04-21T05:34:03.088Z,95843.17
2019-04-21T05:36:44.849Z,95840.19
2019-04-21T05:39:24.850Z,95835.20
2019-04-21T05:41:49.658Z,95835.22
2019-04-21T05:44:41.359Z,95836.95
2019-04-21T05:47:20.919Z,95829.73
2019-04-21T05:49:55.287Z,95837.78
2019-04-21T05:52:27.529Z,95828.25
2019-04-21T05:55:10.984Z,95824.73
2019-04-21T05:57:42.581Z,95824.33
2019-04-21T06:00:23.539Z,95830.22
2019-04-21T06:02:58.538Z,95828.27
2019-04-21T06:05:34.967Z,95826.67
2019-04-21T06:08:02.790Z,95827.67
2019-04-21T06:10:34.919Z,95825.84
2019-04-21T06:13:16.440Z,95828.41
2019-04-21T06:15:44.589Z,95827.28
2019-04-21T06:18:21.450Z,95821.83
2019-04-21T06:20:48.017Z,95822.45
2019-04-21T06:23:27.029Z,95818.01
2019-04-21T06:26:03.738Z,95815.97
2019-04-21T06:28:33.638Z,95812.92
2019-04-21T06:31:30.287Z,95807.90
2019-04-21T06:33:43.219Z,95805.81
2019-04-21T06:36:31.835Z,95799.50
2019-04-21T06:39:06.479Z,95799.59
2019-04-21T06:46:53.212Z,95799.91
2019-04-21T06:49:11.174Z,95797.19
2019-04-21T06:51:44.841Z,95795.81
2019-04-21T06:54:23.451Z,95803.06
2019-04-21T06:56:51.557Z,95793.64
2019-04-21T06:59:29.398Z,95791.58
2019-04-21T07:02:18.383Z,95787.19
2019-04-21T07:04:36.840Z,95789.23
2019-04-21T07:07:04.589Z,95790.73
2019-04-21T07:09:37.658Z,95781.47
2019-04-21T07:12:06.161Z,95783.09
2019-04-21T07:14:43.738Z,95780.73
2019-04-21T07:17:24.689Z,95788.50
2019-04-21T07:19:58.820Z,95796.05
2019-04-21T07:22:30.630Z,95792.05
2019-04-21T07:25:03.008Z,95787.67
2019-04-21T07:27:35.108Z,95791.98
2019-04-21T07:30:04.641Z,95791.70
2019-04-21T07:32:40.057Z,95782.73
2019-04-21T07:35:15.046Z,95773.77
2019-04-21T07:37:50.827Z,95778.14
2019-04-21T07:40:14.534Z,95767.60
2019-04-21T07:42:47.841Z,95765.50
2019-04-21T07:45:24.007Z,95768.55
2019-04-21T07:48:01.749Z,95764.75
2019-04-21T07:50:54.370Z,95763.90
2019-04-21T07:53:36.501Z,95755.59
2019-04-21T07:55:41.087Z,95759.36
2019-04-21T07:58:29.012Z,95758.77
2019-04-21T08:01:04.300Z,95755.44
2019-04-21T08:03:55.381Z,95745.48
2019-04-21T08:06:33.937Z,95746.92
2019-04-21T08:09:00.907Z,95743.98
2019-04-21T08:11:25.349Z,95742.90
2019-04-21T08:14:10.636Z,95739.03
2019-04-21T08:16:39.750Z,95732.53
2019-04-21T08:19:12.675Z,95733.03
2019-04-21T08:21:49.634Z,95725.78
2019-04-21T08:24:19.800Z,95723.00
2019-04-21T08:26:57.580Z,95727.74
2019-04-21T08:29:33.212Z,95725.03
2019-04-21T08:37:12.187Z,95709.58
2019-04-21T08:42:23.928Z,95706.97
2019-04-21T08:44:52.441Z,95695.47
2019-04-21T08:47:25.999Z,95692.08
2019-04-21T08:49:53.860Z,95698.53
2019-04-21T08:55:31.841Z,95695.03
2019-04-21T08:58:34.022Z,95685.75
2019-04-21T09:01:24.249Z,95679.27
2019-04-21T09:04:21.694Z,95675.83
2019-04-21T09:09:28.869Z,95666.81
2019-04-21T09:12:01.600Z,95661.41
2019-04-21T09:14:30.512Z,95660.69
2019-04-21T09:17:03.203Z,95656.87
2019-04-21T09:22:12.964Z,95648.08
2019-04-21T09:24:45.726Z,95642.72
2019-04-21T09:27:14.323Z,95641.10
2019-04-21T09:29:39.343Z,95638.65
2019-04-21T09:32:12.372Z,95632.20
2019-04-21T09:34:44.155Z,95627.39
2019-04-21T09:37:26.454Z,95627.33
2019-04-21T09:39:50.812Z,95629.69
2019-04-21T09:42:21.907Z,95620.52
2019-04-21T09:44:59.397Z,95622.29
2019-04-21T09:47:35.081Z,95621.33
2019-04-21T09:50:04.562Z,95616.55
2019-04-21T09:52:45.424Z,95608.52
2019-04-21T09:55:14.278Z,95610.79
2019-04-21T09:57:51.593Z,95601.38
2019-04-21T10:00:21.155Z,95598.62
2019-04-21T10:02:59.964Z,95591.64
2019-04-21T10:05:25.258Z,95587.53
2019-04-21T10:07:57.501Z,95589.83
2019-04-21T10:10:29.745Z,95582.30
2019-04-21T10:13:02.894Z,95582.05
2019-04-21T10:15:33.680Z,95572.47
2019-04-21T10:18:10.845Z,95571.43
2019-04-21T10:20:42.859Z,95566.80
2019-04-21T10:23:15.802Z,95561.68
2019-04-21T10:25:48.470Z,95561.41
2019-04-21T10:28:21.399Z,95558.13
2019-04-21T10:30:53.357Z,95557.24
2019-04-21T10:33:26.230Z,95553.28
2019-04-21T10:35:59.183Z,95552.75
2019-04-21T10:38:38.901Z,95548.84
2019-04-21T10:41:03.480Z,95547.49
2019-04-21T10:43:35.608Z,95533.47
2019-04-21T10:46:08.680Z,95537.28
2019-04-21T10:48:41.086Z,95521.89
2019-04-21T10:51:13.110Z,95520.77
2019-04-21T10:53:48.142Z,95512.89
2019-04-21T10:56:28.582Z,95517.40
2019-04-21T10:58:54.141Z,95505.05
2019-04-21T11:01:29.392Z,95512.50
2019-04-21T11:04:19.586Z,95512.63
2019-04-21T11:06:44.599Z,95521.47
2019-04-21T11:09:16.353Z,95512.30
2019-04-21T11:11:50.315Z,95505.79
2019-04-21T11:14:23.030Z,95505.74
2019-04-21T11:16:54.799Z,95511.11
2019-04-21T11:19:26.737Z,95500.84
2019-04-21T11:21:58.805Z,95501.09
2019-04-21T11:24:31.385Z,95497.84
2019-04-21T11:27:04.512Z,95491.99
2019-04-21T11:29:37.143Z,95491.31
2019-04-21T11:32:09.359Z,95491.62
2019-04-21T11:34:41.142Z,95480.62
2019-04-21T11:37:14.731Z,95479.16
2019-04-21T11:39:55.297Z,95480.02
2019-04-21T11:42:30.477Z,95479.78
2019-04-21T11:45:02.129Z,95473.41
2019-04-21T11:47:46.327Z,95470.91
2019-04-21T11:50:17.098Z,95468.47
2019-04-21T11:52:49.328Z,95468.67
2019-04-21T11:55:22.827Z,95478.94
2019-04-21T11:57:56.206Z,95475.11
2019-04-21T12:00:29.542Z,95469.79
2019-04-21T12:03:01.661Z,95468.84
2019-04-21T12:05:35.165Z,95460.96
2019-04-21T12:08:18.948Z,95452.88
2019-04-21T12:10:41.730Z,95450.56
2019-04-21T12:13:14.121Z,95454.65
2019-04-21T12:15:47.123Z,95450.16
2019-04-21T12:18:19.814Z,95452.53
2019-04-21T12:20:51.708Z,95447.59
2019-04-21T12:23:24.385Z,95441.81
2019-04-21T12:25:56.955Z,95436.20
2019-04-21T12:28:30.106Z,95430.87
2019-04-21T12:31:03.316Z,95429.96
2019-04-21T12:33:53.987Z,95424.52
2019-04-21T12:36:25.645Z,95427.09
2019-04-21T12:39:01.076Z,95425.83
2019-04-21T12:41:30.870Z,95410.64
2019-04-21T12:44:02.661Z,95406.34
2019-04-21T12:46:35.926Z,95402.79
2019-04-21T12:49:07.764Z,95400.20
2019-04-21T12:51:39.775Z,95399.91
2019-04-21T12:54:11.962Z,95400.83
2019-04-21T12:56:45.313Z,95407.32
2019-04-21T12:59:17.198Z,95390.86
2019-04-21T13:01:49.021Z,95392.91
2019-04-21T13:04:21.839Z,95390.61
2019-04-21T13:06:52.465Z,95382.81
2019-04-21T13:09:24.482Z,95379.38
2019-04-21T13:11:57.574Z,95376.19
2019-04-21T13:14:29.578Z,95368.59
2019-04-21T13:17:01.559Z,95366.45
2019-04-21T13:19:33.540Z,95356.84
2019-04-21T13:22:05.842Z,95362.04
2019-04-21T13:24:38.000Z,95360.16
2019-04-21T13:27:10.902Z,95366.22
2019-04-21T13:29:44.042Z,95362.16
2019-04-21T13:32:14.581Z,95360.16
2019-04-21T13:34:47.728Z,95355.89
2019-04-21T13:37:21.409Z,95351.67
2019-04-21T13:40:48.668Z,95350.49
2019-04-21T13:43:06.619Z,95346.59
2019-04-21T13:45:39.493Z,95341.29
2019-04-21T13:48:12.668Z,95336.78
2019-04-21T13:50:46.941Z,95336.55
2019-04-21T13:53:18.912Z,95337.13
2019-04-21T13:55:50.899Z,95338.98
2019-04-21T13:58:22.591Z,95341.70
2019-04-21T14:00:54.776Z,95336.94
2019-04-21T14:03:27.441Z,95333.68
2019-04-21T14:06:00.291Z,95330.33
2019-04-21T14:08:51.183Z,95335.95
2019-04-21T14:11:23.400Z,95336.70
2019-04-21T14:13:56.226Z,95323.00
2019-04-21T14:16:28.190Z,95330.31
2019-04-21T14:19:01.359Z,95318.14
2019-04-21T14:21:33.761Z,95314.06
2019-04-21T14:24:06.694Z,95313.25
2019-04-21T14:26:38.553Z,95308.06
2019-04-21T14:29:11.393Z,95316.97
2019-04-21T14:31:44.312Z,95308.17
2019-04-21T14:34:23.785Z,95320.20
2019-04-21T14:36:56.899Z,95313.48
2019-04-21T14:39:28.249Z,95306.43
2019-04-21T14:42:00.211Z,95306.45
2019-04-21T14:44:33.141Z,95307.30
2019-04-21T14:47:09.464Z,95308.59
2019-04-21T14:50:00.472Z,95305.86
2019-04-21T14:52:36.825Z,95304.76
2019-04-21T14:55:22.885Z,95301.97
2019-04-21T14:57:54.973Z,95306.53
2019-04-21T15:00:31.422Z,95306.27
2019-04-21T15:03:03.702Z,95299.05
2019-04-21T15:05:35.584Z,95302.47
2019-04-21T15:08:06.934Z,95304.63
2019-04-21T15:10:38.978Z,95297.65
2019-04-21T15:13:11.857Z,95302.30
2019-04-21T15:15:47.847Z,95306.13
2019-04-21T15:18:21.203Z,95306.39
2019-04-21T15:20:53.158Z,95293.74
2019-04-21T15:23:26.864Z,95297.76
2019-04-21T15:25:58.191Z,95288.61
2019-04-21T15:28:32.085Z,95285.70
2019-04-21T15:31:04.847Z,95286.78
2019-04-21T15:33:36.989Z,95289.19
2019-04-21T15:36:09.138Z,95283.55
2019-04-21T15:38:40.638Z,95283.60
2019-04-21T15:41:14.470Z,95280.16
2019-04-21T15:43:46.735Z,95281.73
2019-04-21T15:46:18.740Z,95283.29
2019-04-21T15:48:51.065Z,95273.36
2019-04-21T15:51:23.949Z,95280.97
2019-04-21T15:53:57.503Z,95278.08
2019-04-21T15:56:36.537Z,95274.00
2019-04-21T15:59:18.854Z,95272.41
2019-04-21T16:02:01.017Z,95276.16
2019-04-21T16:04:32.753Z,95277.23
2019-04-21T16:07:05.900Z,95275.94
2019-04-21T16:09:37.546Z,95269.81
2019-04-21T16:12:09.724Z,95260.48
2019-04-21T16:14:42.633Z,95252.25
2019-04-21T16:17:15.261Z,95257.11
2019-04-21T16:19:48.027Z,95251.75
2019-04-21T16:22:20.930Z,95261.93
2019-04-21T16:24:52.779Z,95255.23
2019-04-21T16:27:25.705Z,95250.97
2019-04-21T16:29:57.926Z,95252.57
2019-04-21T16:32:30.190Z,95249.11
2019-04-21T16:35:07.160Z,95255.83
2019-04-21T16:37:35.495Z,95251.02
2019-04-21T16:40:09.614Z,95253.40
2019-04-21T16:42:42.524Z,95247.24
2019-04-21T16:45:14.835Z,95251.01
2019-04-21T16:47:49.104Z,95250.73
2019-04-21T16:50:21.522Z,95249.12
2019-04-21T16:53:08.330Z,95246.72
2019-04-21T16:56:06.796Z,95250.45
2019-04-21T16:58:43.161Z,95244.03
2019-04-21T17:01:31.852Z,95246.92
2019-04-21T17:04:04.564Z,95244.70
2019-04-21T17:06:38.476Z,95254.03
2019-04-21T17:09:10.677Z,95253.68
2019-04-21T17:11:44.676Z,95254.98
2019-04-21T17:14:31.517Z,95252.81
2019-04-21T17:17:14.530Z,95258.13
2019-04-21T17:19:27.798Z,95262.52
2019-04-21T17:21:55.387Z,95265.98
2019-04-21T17:24:28.515Z,95269.95
2019-04-21T17:26:59.579Z,95271.23
2019-04-21T17:29:32.523Z,95271.98
2019-04-21T17:32:06.503Z,95273.22
2019-04-21T17:34:39.169Z,95272.86
2019-04-21T17:37:11.080Z,95281.92
2019-04-21T17:39:44.992Z,95281.09
2019-04-21T17:42:28.926Z,95277.84
2019-04-21T17:44:50.955Z,95278.12
2019-04-21T17:47:34.717Z,95279.77
2019-04-21T17:50:17.974Z,95284.83
2019-04-21T17:52:58.144Z,95287.98
2019-04-21T17:55:32.029Z,95296.02
2019-04-21T17:58:18.996Z,95287.83
2019-04-21T18:03:34.230Z,95296.15
2019-04-21T18:05:59.452Z,95300.52
2019-04-21T18:08:36.402Z,95303.94
2019-04-21T18:11:02.923Z,95305.73
2019-04-21T18:13:26.817Z,95317.31
2019-04-21T18:16:11.054Z,95311.81
2019-04-21T18:18:31.030Z,95311.73
2019-04-21T18:21:16.750Z,95320.03
2019-04-21T18:24:04.849Z,95317.31
2019-04-21T18:26:37.090Z,95321.48
2019-04-21T18:29:01.405Z,95319.63
2019-04-21T18:31:40.116Z,95320.33
2019-04-21T18:34:18.178Z,95329.88
2019-04-21T18:36:55.317Z,95322.36
2019-04-21T18:39:50.027Z,95330.56
2019-04-21T18:42:48.149Z,95329.76
2019-04-21T18:48:16.989Z,95333.95
2019-04-21T18:50:50.923Z,95340.47
2019-04-21T18:53:46.246Z,95338.12
2019-04-21T18:56:08.296Z,95343.24
2019-04-21T18:58:40.287Z,95348.45
2019-04-21T19:01:22.002Z,95343.03
2019-04-21T19:03:49.007Z,95346.61
2019-04-21T19:06:32.348Z,95348.00
2019-04-21T19:09:11.563Z,95341.02
2019-04-21T19:11:42.545Z,95346.02
2019-04-21T19:14:32.300Z,95349.34
2019-04-21T19:17:04.255Z,95347.77
2019-04-21T19:22:04.855Z,95353.77
2019-04-21T19:24:45.597Z,95353.44
2019-04-21T19:27:14.394Z,95365.72
2019-04-21T19:29:45.775Z,95360.88
2019-04-21T19:34:35.879Z,95364.97
2019-04-21T19:37:10.843Z,95366.63
2019-04-21T19:39:50.791Z,95359.90
2019-04-21T19:42:19.674Z,95363.88
2019-04-21T19:44:56.453Z,95365.53
2019-04-21T19:47:33.119Z,95372.05
2019-04-21T19:50:06.197Z,95370.28
2019-04-21T19:52:34.685Z,95373.08
2019-04-21T19:54:58.669Z,95367.08
2019-04-21T19:57:31.318Z,95370.78
2019-04-21T20:00:04.281Z,95365.64
2019-04-21T20:02:36.387Z,95376.03
2019-04-21T20:05:14.666Z,95371.40
2019-04-21T20:08:02.976Z,95368.70
2019-04-21T20:10:35.489Z,95375.32
2019-04-21T20:13:08.167Z,95374.67
2019-04-21T20:16:00.268Z,95379.96
2019-04-21T20:18:08.683Z,95380.88
2019-04-21T20:20:28.937Z,95376.13
2019-04-21T20:23:01.280Z,95377.97
2019-04-21T20:25:39.295Z,95376.19
2019-04-21T20:28:16.043Z,95375.16
2019-04-21T20:31:00.702Z,95370.00
2019-04-21T20:36:02.221Z,95372.71
2019-04-21T20:38:32.721Z,95377.95
2019-04-21T20:41:03.469Z,95376.11
2019-04-21T20:43:47.410Z,95372.94
2019-04-21T20:46:11.824Z,95374.56
2019-04-21T20:48:47.335Z,95378.50
2019-04-21T20:51:23.703Z,95370.88
2019-04-21T20:53:53.724Z,95370.37
2019-04-21T20:56:21.809Z,95364.00
2019-04-21T20:59:01.265Z,95369.95
2019-04-21T21:01:34.688Z,95361.75
2019-04-21T21:04:06.167Z,95360.55
2019-04-21T21:06:41.108Z,95366.71
2019-04-21T21:09:17.086Z,95363.00
2019-04-21T21:11:56.841Z,95358.74
2019-04-21T21:14:21.996Z,95354.34
2019-04-21T21:17:26.698Z,95355.78
2019-04-21T21:19:34.825Z,95360.97
2019-04-21T21:21:58.775Z,95363.47
2019-04-21T21:24:43.396Z,95369.08
2019-04-21T21:27:10.428Z,95371.00
2019-04-21T21:29:47.506Z,95366.48
2019-04-21T21:32:30.306Z,95365.86
2019-04-21T21:34:52.255Z,95374.27
2019-04-21T21:37:32.237Z,95369.22
2019-04-21T21:40:08.263Z,95370.64
2019-04-21T21:42:13.949Z,95370.45
2019-04-21T21:44:50.545Z,95366.27
2019-04-21T21:47:39.512Z,95360.66
2019-04-21T21:50:04.471Z,95359.04
2019-04-21T21:52:42.592Z,95361.00
2019-04-21T21:55:01.589Z,95352.08
2019-04-21T21:57:45.425Z,95359.19
2019-04-21T22:00:14.712Z,95365.55
2019-04-21T22:02:51.092Z,95365.22
2019-04-21T22:05:27.180Z,95356.68
2019-04-21T22:07:56.265Z,95357.49
2019-04-21T22:10:29.376Z,95358.80
2019-04-21T22:13:07.178Z,95362.62
2019-04-21T22:15:37.574Z,95360.02
2019-04-21T22:18:28.733Z,95362.56
2019-04-21T22:20:58.859Z,95369.48
2019-04-21T22:23:26.108Z,95365.53
2019-04-21T22:25:47.514Z,95365.83
2019-04-21T22:28:18.175Z,95365.91
2019-04-21T22:30:51.869Z,95370.97
2019-04-21T22:33:23.072Z,95367.13
2019-04-21T22:36:02.251Z,95366.75
2019-04-21T22:38:40.879Z,95362.59
2019-04-21T22:41:09.942Z,95365.73
2019-04-21T22:43:36.449Z,95364.79
2019-04-21T22:46:01.290Z,95363.78
2019-04-21T22:48:32.570Z,95365.47
2019-04-21T22:51:08.768Z,95356.98
2019-04-21T22:53:44.840Z,95362.16
2019-04-21T22:56:14.864Z,95349.98
2019-04-21T22:58:44.360Z,95352.98
2019-04-21T23:01:19.180Z,95354.98
2019-04-21T23:03:52.144Z,95349.61
2019-04-21T23:06:22.065Z,95356.66
2019-04-21T23:08:51.270Z,95350.08
2019-04-21T23:11:23.437Z,95352.13
2019-04-21T23:14:03.741Z,95347.34
2019-04-21T23:16:31.669Z,95344.13
2019-04-21T23:19:15.713Z,95339.89
2019-04-21T23:21:53.802Z,95339.19
2019-04-21T23:24:26.200Z,95334.02
2019-04-21T23:26:46.240Z,95331.88
2019-04-21T23:29:38.782Z,95335.01
2019-04-21T23:31:59.202Z,95334.01
2019-04-21T23:34:19.761Z,95333.31
2019-04-21T23:36:54.378Z,95335.13
2019-04-21T23:39:23.316Z,95332.29
2019-04-21T23:41:52.868Z,95328.84
2019-04-21T23:44:22.194Z,95329.44
2019-04-21T23:46:57.542Z,95325.17
2019-04-21T23:49:35.134Z,95322.36
2019-04-21T23:52:02.971Z,95321.14
2019-04-21T23:54:29.592Z,95322.96
2019-04-21T23:57:02.864Z,95323.55
2019-04-21T23:59:38.500Z,95316.33
